Parc national de Yoho, Colombie-Britannique

Conditions des dernières 24 heures

Date / Heure
(HAR)
Conditions Temp
(°C)
Humidité
(%)
Point de rosée
(°C)
Vent
(km/h)
Pression
(kPa)
Vis
(km)
Refr. éolien
25 octobre 2014
4:00 N.D. -4   98 -4 ESE 5 101,9 N.D. -6
3:00 N.D. -4   98 -4 ESE 3 102,0 N.D. -5
2:00 N.D. -4   99 -4 E 4 102,1 N.D. -5
1:00 N.D. -3 99 -4 ENE 2 102,1 N.D. -4
0:00 N.D. -3 100 -3 E 3 102,1 N.D. -5
24 octobre 2014
23:00 N.D. -3 100 -3 ENE 3 102,1 N.D. -4
22:00 N.D. -3 99 -3 E 3 102,1 N.D. -4
21:00 N.D. -2 99 -2 E 2 102,1 N.D. -3
20:00 N.D. -2 99 -2 calme 102,1 N.D. *
19:00 N.D. -1 99 -1 O 11 102,0 N.D. -5
18:00 N.D. 0 98 -1 ONO 4 102,0 N.D. -2
17:00 N.D. 1   98 0 O 5 102,0 N.D. *
16:00 N.D. 1   97 0 OSO 13 101,9 N.D. *
15:00 N.D. 1   97 0 OSO 15 101,9 N.D. *
14:00 N.D. 1   96 0 O 11 101,8 N.D. *
13:00 N.D. 0 96 -1 OSO 15 101,8 N.D. -5
12:00 N.D. 0 95 0 O 17 101,7 N.D. *
11:00 N.D. 0 98 -1 O 16 101,7 N.D. -5
10:00 N.D. 0 99 -1 O 18 101,6 N.D. -5
9:00 N.D. -1 100 -1 O 15 101,6 N.D. -5
8:00 N.D. -1 100 -1 O 19 101,5 N.D. -6
7:00 N.D. -1 100 -1 O 18 101,4 N.D. -6
6:00 N.D. -1 100 -1 ONO 12 101,3 N.D. -4
5:00 N.D. 0 100 0 OSO 16 101,2 N.D. -5
4:00 N.D. 0 100 0 ONO 16 101,1 N.D. -5
N.D. non disponible
↑ température la plus haute
↓ température la plus basse
* Valeur non significative.

Si vous désirez plus de données historiques sur les conditions météo, s.v.p. visitez Données climatologiques en ligne.

Date de modification :